createdAt,value
2022-12-19T00:01:50.419Z,102498.00
2022-12-19T00:06:53.611Z,102498.20
2022-12-19T00:11:56.783Z,102489.40
2022-12-19T00:16:59.836Z,102474.20
2022-12-19T00:22:06.024Z,102472.40
2022-12-19T00:27:11.436Z,102464.60
2022-12-19T00:32:14.632Z,102460.60
2022-12-19T00:37:19.885Z,102464.40
2022-12-19T00:42:23.093Z,102460.20
2022-12-19T00:47:26.203Z,102451.60
2022-12-19T00:52:29.595Z,102452.40
2022-12-19T00:57:35.381Z,102439.20
2022-12-19T01:02:38.668Z,102446.60
2022-12-19T01:07:42.413Z,102432.60
2022-12-19T01:12:48.598Z,102426.20
2022-12-19T01:17:51.911Z,102425.20
2022-12-19T01:22:55.213Z,102428.40
2022-12-19T01:27:58.343Z,102425.20
2022-12-19T01:33:01.836Z,102411.40
2022-12-19T01:38:08.025Z,102410.20
2022-12-19T01:43:15.931Z,102398.80
2022-12-19T01:48:33.177Z,102402.40
2022-12-19T01:53:48.732Z,102392.60
2022-12-19T01:59:05.114Z,102384.00
2022-12-19T02:04:11.340Z,102373.60
2022-12-19T02:09:15.055Z,102371.80
2022-12-19T02:14:18.898Z,102369.40
2022-12-19T02:19:53.531Z,102375.60
2022-12-19T02:25:17.749Z,102359.80
2022-12-19T02:31:16.527Z,102356.80
2022-12-19T02:36:48.944Z,102350.00
2022-12-19T02:41:58.716Z,102339.40
2022-12-19T02:47:04.888Z,102331.20
2022-12-19T02:52:34.221Z,102332.80
2022-12-19T02:58:08.348Z,102315.00
2022-12-19T03:03:35.593Z,102306.60
2022-12-19T03:09:08.529Z,102297.20
2022-12-19T03:14:19.996Z,102292.00
2022-12-19T03:19:24.507Z,102296.40
2022-12-19T03:24:28.845Z,102276.40
2022-12-19T03:29:45.854Z,102275.60
2022-12-19T03:34:59.808Z,102269.20
2022-12-19T03:40:15.520Z,102267.80
2022-12-19T03:45:54.746Z,102279.00
2022-12-19T03:51:00.742Z,102280.00
2022-12-19T03:56:17.777Z,102281.60
2022-12-19T04:01:22.449Z,102273.80
2022-12-19T04:06:31.944Z,102274.20
2022-12-19T04:11:42.196Z,102282.00
2022-12-19T04:17:18.328Z,102289.00
2022-12-19T04:22:50.015Z,102297.40
2022-12-19T04:28:02.435Z,102288.20
2022-12-19T04:33:06.468Z,102281.40
2022-12-19T04:38:11.411Z,102276.00
2022-12-19T04:43:14.629Z,102271.00
2022-12-19T04:48:17.828Z,102269.80
2022-12-19T04:53:21.030Z,102259.20
2022-12-19T04:58:24.139Z,102255.60
2022-12-19T05:03:27.434Z,102253.60
2022-12-19T05:08:30.858Z,102253.40
2022-12-19T05:13:34.183Z,102250.20
2022-12-19T05:18:39.282Z,102251.80
2022-12-19T05:23:42.744Z,102242.40
2022-12-19T05:28:45.876Z,102248.00
2022-12-19T05:33:49.561Z,102236.00
2022-12-19T05:38:52.873Z,102234.00
2022-12-19T05:43:56.901Z,102232.60
2022-12-19T05:49:00.024Z,102237.00
2022-12-19T05:54:03.418Z,102231.20
2022-12-19T05:59:06.645Z,102223.40
2022-12-19T06:04:09.842Z,102216.40
2022-12-19T06:09:12.944Z,102214.00
2022-12-19T06:14:16.404Z,102204.80
2022-12-19T06:19:21.887Z,102202.20
2022-12-19T06:24:26.205Z,102204.20
2022-12-19T06:29:29.269Z,102194.00
2022-12-19T06:35:02.689Z,102195.00
2022-12-19T06:39:56.463Z,102197.80
2022-12-19T06:44:59.783Z,102202.60
2022-12-19T06:50:03.285Z,102202.40
2022-12-19T06:55:07.606Z,102212.40
2022-12-19T07:00:15.450Z,102202.00
2022-12-19T07:05:19.366Z,102194.60
2022-12-19T07:10:22.584Z,102192.00
2022-12-19T07:15:26.620Z,102191.40
2022-12-19T07:20:32.022Z,102187.80
2022-12-19T07:25:35.372Z,102186.40
2022-12-19T07:30:38.679Z,102180.00
2022-12-19T07:35:42.115Z,102184.40
2022-12-19T07:40:45.512Z,102174.60
2022-12-19T07:45:56.104Z,102175.60
2022-12-19T07:50:59.291Z,102166.00
2022-12-19T07:56:02.419Z,102160.00
2022-12-19T08:01:06.685Z,102159.40
2022-12-19T08:06:11.491Z,102144.00
2022-12-19T08:11:27.638Z,102139.20
2022-12-19T08:16:31.579Z,102131.80
2022-12-19T08:21:34.843Z,102128.80
2022-12-19T08:26:41.824Z,102112.20
2022-12-19T08:31:48.211Z,102118.00
2022-12-19T08:36:51.334Z,102108.00
2022-12-19T08:41:54.934Z,102108.80
2022-12-19T08:46:58.293Z,102103.20
2022-12-19T08:52:01.662Z,102104.20
2022-12-19T08:57:05.078Z,102092.60
2022-12-19T09:02:10.959Z,102086.20
2022-12-19T09:07:15.389Z,102077.00
2022-12-19T09:12:19.953Z,102066.40
2022-12-19T09:17:23.130Z,102057.60
2022-12-19T09:22:27.778Z,102050.60
2022-12-19T09:27:47.388Z,102039.20
2022-12-19T09:32:56.005Z,102027.60
2022-12-19T09:38:00.560Z,102023.40
2022-12-19T09:43:21.294Z,102016.20
2022-12-19T09:48:25.079Z,101996.60
2022-12-19T09:53:38.455Z,101978.40
2022-12-19T09:58:49.743Z,101969.40
2022-12-19T10:04:19.573Z,101973.80
2022-12-19T10:11:36.753Z,101941.20
2022-12-19T10:15:43.354Z,101918.60
2022-12-19T10:22:07.618Z,101915.00
2022-12-19T10:27:04.532Z,101896.20
2022-12-19T10:32:57.545Z,101898.40
2022-12-19T10:38:52.017Z,101896.60
2022-12-19T10:44:09.716Z,101881.40
2022-12-19T10:49:20.082Z,101867.40
2022-12-19T10:54:30.727Z,101845.80
2022-12-19T10:59:36.427Z,101829.40
2022-12-19T11:04:40.043Z,101824.00
2022-12-19T11:09:50.621Z,101821.40
2022-12-19T11:19:06.832Z,101807.80
2022-12-19T11:29:39.999Z,101796.00
2022-12-19T11:29:45.131Z,101801.00
2022-12-19T11:37:35.966Z,101787.00
2022-12-19T11:43:18.180Z,101764.80
2022-12-19T11:48:30.916Z,101744.40
2022-12-19T11:54:04.767Z,101735.40
2022-12-19T11:59:36.686Z,101714.40
2022-12-19T12:04:53.683Z,101710.80
2022-12-19T12:15:44.839Z,101713.60
2022-12-19T12:27:14.370Z,101692.80
2022-12-19T12:31:18.864Z,101688.80
2022-12-19T12:31:42.014Z,101693.00
2022-12-19T12:35:40.507Z,101687.60
2022-12-19T12:40:06.296Z,101684.60
2022-12-19T12:45:31.690Z,101676.20
2022-12-19T12:50:36.676Z,101662.20
2022-12-19T12:55:42.151Z,101651.40
2022-12-19T13:01:30.778Z,101630.00
2022-12-19T13:06:39.801Z,101626.00
2022-12-19T13:12:09.481Z,101624.20
2022-12-19T13:17:32.853Z,101620.80
2022-12-19T13:22:35.996Z,101618.40
2022-12-19T13:27:41.123Z,101603.00
2022-12-19T13:32:44.258Z,101590.20
2022-12-19T13:40:01.729Z,101576.00
2022-12-19T13:43:48.408Z,101570.00
2022-12-19T13:48:58.852Z,101548.40
2022-12-19T13:54:01.978Z,101543.80
2022-12-19T13:59:05.918Z,101524.80
2022-12-19T14:04:27.482Z,101525.80
2022-12-19T14:11:28.833Z,101517.40
2022-12-19T14:15:14.754Z,101515.00
2022-12-19T14:22:01.464Z,101507.40
2022-12-19T14:28:25.853Z,101494.20
2022-12-19T14:31:19.759Z,101497.80
2022-12-19T14:36:29.220Z,101503.80
2022-12-19T14:42:04.866Z,101483.00
2022-12-19T14:54:07.203Z,101492.40
2022-12-19T14:54:27.815Z,101494.80
2022-12-19T14:58:54.111Z,101477.00
2022-12-19T15:04:50.972Z,101460.80
2022-12-19T15:11:00.652Z,101456.80
2022-12-19T15:15:36.321Z,101442.80
2022-12-19T15:20:39.540Z,101429.60
2022-12-19T15:26:03.281Z,101420.00
2022-12-19T15:31:21.941Z,101408.40
2022-12-19T15:36:25.204Z,101407.40
2022-12-19T15:41:28.449Z,101395.00
2022-12-19T15:46:32.858Z,101400.00
2022-12-19T15:51:36.072Z,101396.20
2022-12-19T15:56:46.839Z,101371.40
2022-12-19T16:01:50.381Z,101370.80
2022-12-19T16:06:53.680Z,101368.00
2022-12-19T16:11:58.414Z,101365.40
2022-12-19T16:17:01.643Z,101351.40
2022-12-19T16:22:19.333Z,101348.60
2022-12-19T16:27:30.849Z,101325.00
2022-12-19T16:32:34.228Z,101325.40
2022-12-19T16:37:37.500Z,101314.40
2022-12-19T16:42:44.189Z,101304.40
2022-12-19T16:47:48.578Z,101296.40
2022-12-19T16:52:53.310Z,101298.00
2022-12-19T16:57:56.988Z,101297.00
2022-12-19T17:03:18.971Z,101293.40
2022-12-19T17:08:22.987Z,101288.80
2022-12-19T17:13:26.988Z,101275.20
2022-12-19T17:18:41.846Z,101288.80
2022-12-19T17:23:46.513Z,101288.00
2022-12-19T17:28:49.697Z,101279.20
2022-12-19T17:33:56.348Z,101274.20
2022-12-19T17:39:00.464Z,101260.80
2022-12-19T17:44:03.673Z,101255.40
2022-12-19T17:49:13.116Z,101250.20
2022-12-19T17:54:16.641Z,101251.80
2022-12-19T17:59:21.229Z,101245.40
2022-12-19T18:04:26.478Z,101223.80
2022-12-19T18:09:29.733Z,101225.20
2022-12-19T18:14:33.040Z,101223.80
2022-12-19T18:19:36.384Z,101229.60
2022-12-19T18:24:40.379Z,101226.00
2022-12-19T18:29:43.503Z,101203.00
2022-12-19T18:34:46.801Z,101177.60
2022-12-19T18:39:49.934Z,101170.80
2022-12-19T18:44:53.049Z,101157.00
2022-12-19T18:49:56.640Z,101143.80
2022-12-19T18:54:59.949Z,101135.40
2022-12-19T19:00:04.386Z,101137.60
2022-12-19T19:05:19.052Z,101117.40
2022-12-19T19:10:29.973Z,101120.60
2022-12-19T19:15:36.578Z,101117.60
2022-12-19T19:20:43.407Z,101120.40
2022-12-19T19:25:46.536Z,101128.00
2022-12-19T19:30:52.558Z,101097.60
2022-12-19T19:36:09.369Z,101082.00
2022-12-19T19:41:14.901Z,101087.60
2022-12-19T19:46:18.212Z,101071.80
2022-12-19T19:51:22.021Z,101043.60
2022-12-19T19:56:25.135Z,101034.20
2022-12-19T20:01:28.810Z,101032.20
2022-12-19T20:06:32.807Z,101018.00
2022-12-19T20:11:36.137Z,101019.60
2022-12-19T20:16:39.825Z,101006.60
2022-12-19T20:21:44.057Z,100990.20
2022-12-19T20:26:47.255Z,100975.80
2022-12-19T20:31:50.478Z,100976.40
2022-12-19T20:36:53.772Z,100977.80
2022-12-19T20:41:57.002Z,100979.80
2022-12-19T20:47:00.539Z,100992.60
2022-12-19T20:52:04.017Z,100988.60
2022-12-19T20:57:07.218Z,100979.20
2022-12-19T21:02:12.006Z,100981.00
2022-12-19T21:07:15.275Z,100969.60
2022-12-19T21:12:18.487Z,100966.20
2022-12-19T21:17:21.798Z,100958.60
2022-12-19T21:22:25.723Z,100952.20
2022-12-19T21:27:28.857Z,100932.60
2022-12-19T21:32:32.037Z,100918.60
2022-12-19T21:37:39.900Z,100912.20
2022-12-19T21:42:47.974Z,100918.60
2022-12-19T21:47:51.108Z,100911.60
2022-12-19T21:52:55.958Z,100902.00
2022-12-19T21:58:00.393Z,100900.40
2022-12-19T22:03:18.829Z,100888.60
2022-12-19T22:08:22.171Z,100881.20
2022-12-19T22:13:26.288Z,100860.60
2022-12-19T22:18:29.586Z,100850.80
2022-12-19T22:23:33.713Z,100837.20
2022-12-19T22:28:42.541Z,100833.20
2022-12-19T22:33:47.279Z,100826.60
2022-12-19T22:38:51.229Z,100818.00
2022-12-19T22:43:55.803Z,100818.80
2022-12-19T22:49:02.957Z,100805.40
2022-12-19T22:54:07.288Z,100805.60
2022-12-19T22:59:12.905Z,100797.20
2022-12-19T23:04:17.901Z,100798.80
2022-12-19T23:09:21.145Z,100782.80
2022-12-19T23:14:24.232Z,100775.00
2022-12-19T23:27:36.020Z,100748.60
2022-12-19T23:32:39.757Z,100746.80
2022-12-19T23:37:45.403Z,100749.00
2022-12-19T23:42:48.589Z,100741.20
2022-12-19T23:47:51.808Z,100727.80
2022-12-19T23:52:55.213Z,100722.60
2022-12-19T23:57:58.432Z,100721.20
